createdAt,value
2019-05-14T00:00:48.514Z,2.25
2019-05-14T00:03:17.744Z,2.43
2019-05-14T00:05:44.324Z,2.00
2019-05-14T00:10:38.422Z,1.80
2019-05-14T00:13:06.791Z,2.10
2019-05-14T00:28:02.127Z,2.00
2019-05-14T00:30:31.714Z,1.90
2019-05-14T01:12:54.447Z,2.30
2019-05-14T01:15:23.943Z,2.20
2019-05-14T01:33:11.677Z,1.93
2019-05-14T01:35:38.045Z,2.00
2019-05-14T01:38:04.973Z,2.13
2019-05-14T01:40:32.149Z,2.15
2019-05-14T01:42:59.015Z,1.93
2019-05-14T01:45:28.432Z,1.90
2019-05-14T01:47:54.092Z,2.10
2019-05-14T01:50:21.518Z,1.87
2019-05-14T01:52:48.598Z,1.90
2019-05-14T01:55:15.537Z,2.17
2019-05-14T01:57:42.658Z,2.00
2019-05-14T02:00:11.489Z,1.90
2019-05-14T02:02:38.260Z,2.00
2019-05-14T02:05:05.135Z,2.73
2019-05-14T02:07:32.431Z,2.20
2019-05-14T02:10:01.000Z,1.87
2019-05-14T02:12:27.401Z,2.17
2019-05-14T02:14:53.982Z,2.00
2019-05-14T02:17:21.277Z,2.07
2019-05-14T02:19:48.641Z,2.00
2019-05-14T02:22:15.265Z,1.87
2019-05-14T02:24:42.174Z,2.00
2019-05-14T02:27:08.823Z,2.37
2019-05-14T02:29:35.431Z,1.70
2019-05-14T02:32:02.196Z,1.90
2019-05-14T02:34:29.941Z,2.17
2019-05-14T02:37:00.170Z,1.83
2019-05-14T02:39:28.987Z,2.23
2019-05-14T02:41:58.902Z,1.90
2019-05-14T02:44:25.221Z,1.90
2019-05-14T02:46:51.807Z,2.10
2019-05-14T02:49:19.447Z,2.00
2019-05-14T02:51:50.428Z,2.13
2019-05-14T02:54:15.965Z,1.90
2019-05-14T02:56:42.717Z,1.85
2019-05-14T02:59:09.962Z,2.00
2019-05-14T03:01:40.419Z,2.00
2019-05-14T03:04:05.553Z,1.77
2019-05-14T03:06:32.999Z,1.80
2019-05-14T03:09:00.138Z,1.80
2019-05-14T03:11:29.702Z,1.97
2019-05-14T03:13:55.207Z,2.00
2019-05-14T03:16:30.479Z,2.00
2019-05-14T03:18:50.694Z,1.80
2019-05-14T03:21:19.882Z,1.80
2019-05-14T03:23:45.644Z,2.10
2019-05-14T03:26:12.313Z,1.67
2019-05-14T03:28:40.064Z,1.87
2019-05-14T03:31:12.164Z,2.07
2019-05-14T03:33:35.608Z,1.60
2019-05-14T03:36:09.147Z,1.82
2019-05-14T03:38:31.148Z,2.00
2019-05-14T03:41:00.268Z,1.72
2019-05-14T03:43:29.358Z,1.70
2019-05-14T03:45:54.746Z,1.50
2019-05-14T03:48:21.430Z,1.87
2019-05-14T03:50:49.569Z,1.50
2019-05-14T03:53:18.871Z,1.90
2019-05-14T03:55:44.716Z,1.50
2019-05-14T03:58:11.313Z,1.90
2019-05-14T04:00:39.004Z,1.60
2019-05-14T04:03:09.466Z,2.12
2019-05-14T04:05:34.571Z,1.90
2019-05-14T04:08:01.417Z,2.10
2019-05-14T04:10:30.055Z,2.13
2019-05-14T04:12:59.743Z,2.10
2019-05-14T04:15:24.881Z,1.87
2019-05-14T04:17:51.698Z,2.00
2019-05-14T04:20:19.706Z,1.60
2019-05-14T04:22:49.741Z,1.80
2019-05-14T04:25:19.295Z,2.00
2019-05-14T04:27:44.533Z,1.70
2019-05-14T04:30:11.161Z,1.80
2019-05-14T04:32:39.429Z,1.90
2019-05-14T04:35:09.358Z,1.70
2019-05-14T04:37:34.766Z,2.10
2019-05-14T04:40:01.559Z,1.80
2019-05-14T04:42:29.544Z,1.70
2019-05-14T04:44:59.658Z,1.80
2019-05-14T04:47:32.300Z,1.60
2019-05-14T04:49:53.816Z,1.70
2019-05-14T04:52:20.860Z,1.75
2019-05-14T04:54:49.935Z,2.00
2019-05-14T04:57:20.301Z,1.90
2019-05-14T04:59:49.372Z,1.90
2019-05-14T05:02:18.966Z,1.83
2019-05-14T05:04:44.643Z,1.80
2019-05-14T05:07:11.274Z,2.10
2019-05-14T05:09:41.531Z,1.90
2019-05-14T05:12:09.152Z,2.37
2019-05-14T05:14:38.610Z,1.73
2019-05-14T05:17:04.869Z,2.00
2019-05-14T05:19:31.518Z,1.70
2019-05-14T05:21:58.793Z,2.00
2019-05-14T05:26:58.524Z,1.80
2019-05-14T05:29:25.785Z,1.90
2019-05-14T05:31:54.552Z,1.73
2019-05-14T05:34:21.591Z,1.60
2019-05-14T05:36:48.670Z,1.80
2019-05-14T05:39:15.469Z,1.67
2019-05-14T05:41:42.535Z,1.50
2019-05-14T05:44:09.126Z,2.00
2019-05-14T05:46:38.976Z,1.40
2019-05-14T05:49:07.907Z,1.60
2019-05-14T05:51:34.404Z,1.63
2019-05-14T05:54:01.097Z,1.77
2019-05-14T05:56:28.817Z,1.93
2019-05-14T05:58:55.838Z,1.25
2019-05-14T06:01:37.642Z,2.30
2019-05-14T06:03:51.977Z,5.40
2019-05-14T06:06:19.420Z,1.60
2019-05-14T06:08:48.886Z,1.97
2019-05-14T06:11:15.044Z,2.02
2019-05-14T06:13:41.651Z,1.53
2019-05-14T06:16:09.428Z,1.20
2019-05-14T06:18:38.801Z,1.50
2019-05-14T06:21:05.374Z,1.50
2019-05-14T06:23:32.025Z,1.77
2019-05-14T06:25:59.961Z,1.37
2019-05-14T06:28:33.000Z,1.50
2019-05-14T06:30:55.797Z,1.40
2019-05-14T06:33:22.648Z,1.43
2019-05-14T06:35:49.370Z,1.57
2019-05-14T06:38:18.364Z,1.62
2019-05-14T06:40:49.007Z,1.63
2019-05-14T06:43:15.922Z,2.72
2019-05-14T06:45:42.550Z,1.70
2019-05-14T06:48:26.385Z,1.40
2019-05-14T06:50:39.388Z,1.40
2019-05-14T06:53:08.800Z,1.40
2019-05-14T06:55:35.527Z,1.50
2019-05-14T06:58:02.535Z,1.53
2019-05-14T07:00:30.537Z,1.60
2019-05-14T07:02:58.291Z,1.60
2019-05-14T07:05:28.136Z,1.60
2019-05-14T07:07:54.569Z,1.50
2019-05-14T07:10:21.591Z,1.65
2019-05-14T07:12:49.915Z,1.80
2019-05-14T07:15:18.252Z,1.57
2019-05-14T07:17:45.520Z,1.40
2019-05-14T07:20:14.788Z,1.60
2019-05-14T07:22:40.533Z,1.40
2019-05-14T07:27:39.448Z,1.30
2019-05-14T07:30:08.801Z,1.70
2019-05-14T07:32:34.847Z,1.40
2019-05-14T07:35:01.462Z,1.53
2019-05-14T07:37:28.756Z,1.20
2019-05-14T07:39:57.826Z,1.20
2019-05-14T07:42:24.154Z,1.57
2019-05-14T07:44:50.829Z,1.40
2019-05-14T07:47:18.861Z,1.50
2019-05-14T07:49:45.895Z,1.40
2019-05-14T07:52:12.539Z,1.30
2019-05-14T07:54:40.350Z,1.50
2019-05-14T07:57:13.213Z,1.70
2019-05-14T07:59:40.062Z,1.63
2019-05-14T08:02:09.131Z,1.70
2019-05-14T08:04:35.391Z,1.50
2019-05-14T08:07:19.182Z,1.60
2019-05-14T08:09:47.890Z,1.93
2019-05-14T08:12:16.345Z,1.70
2019-05-14T08:14:57.184Z,1.87
2019-05-14T08:17:11.196Z,2.10
2019-05-14T08:19:38.536Z,1.60
2019-05-14T08:22:09.670Z,1.60
2019-05-14T08:24:38.500Z,1.50
2019-05-14T08:27:05.392Z,1.67
2019-05-14T08:29:32.260Z,1.53
2019-05-14T08:32:00.373Z,1.50
2019-05-14T08:34:29.427Z,1.50
2019-05-14T08:36:55.702Z,1.80
2019-05-14T08:39:22.449Z,1.60
2019-05-14T08:41:59.466Z,1.73
2019-05-14T08:44:24.515Z,1.50
2019-05-14T08:46:51.662Z,1.60
2019-05-14T08:49:18.580Z,1.87
2019-05-14T08:51:45.444Z,1.90
2019-05-14T08:54:12.474Z,1.60
2019-05-14T08:56:39.422Z,1.40
2019-05-14T08:59:08.669Z,1.80
2019-05-14T09:01:34.911Z,1.60
2019-05-14T09:04:03.177Z,1.62
2019-05-14T09:06:29.820Z,1.50
2019-05-14T09:08:59.215Z,1.50
2019-05-14T09:11:26.185Z,1.70
2019-05-14T09:13:53.144Z,2.03
2019-05-14T09:16:20.012Z,1.60
2019-05-14T09:18:48.851Z,1.40
2019-05-14T09:21:16.344Z,1.80
2019-05-14T09:23:43.049Z,1.57
2019-05-14T09:26:09.911Z,1.90
2019-05-14T09:28:39.016Z,1.40
2019-05-14T09:31:08.437Z,1.43
2019-05-14T09:33:34.362Z,1.50
2019-05-14T09:36:14.671Z,1.60
2019-05-14T09:38:29.661Z,1.60
2019-05-14T09:41:08.109Z,1.80
2019-05-14T09:43:25.219Z,1.45
2019-05-14T09:45:51.830Z,1.93
2019-05-14T09:48:18.555Z,1.60
2019-05-14T09:50:45.429Z,1.50
2019-05-14T09:53:12.427Z,1.57
2019-05-14T09:55:39.315Z,1.40
2019-05-14T09:58:08.094Z,1.40
2019-05-14T10:00:34.717Z,1.30
2019-05-14T10:03:01.643Z,1.92
2019-05-14T10:05:28.269Z,1.50
2019-05-14T10:07:54.936Z,1.60
2019-05-14T10:10:21.532Z,1.80
2019-05-14T10:12:53.869Z,1.55
2019-05-14T10:15:17.217Z,1.42
2019-05-14T10:17:43.935Z,1.70
2019-05-14T10:20:10.563Z,1.70
2019-05-14T10:22:39.504Z,1.50
2019-05-14T10:25:05.573Z,1.67
2019-05-14T10:27:32.208Z,1.67
2019-05-14T10:29:58.975Z,1.70
2019-05-14T10:32:25.611Z,1.70
2019-05-14T10:34:52.206Z,1.40
2019-05-14T10:37:19.356Z,1.60
2019-05-14T10:39:46.303Z,1.80
2019-05-14T10:42:13.128Z,1.57
2019-05-14T10:44:40.147Z,1.63
2019-05-14T10:47:09.278Z,1.60
2019-05-14T10:49:35.327Z,1.90
2019-05-14T10:52:01.999Z,1.80
2019-05-14T10:54:29.389Z,1.60
2019-05-14T10:56:58.958Z,1.50
2019-05-14T10:59:24.905Z,1.50
2019-05-14T11:01:51.647Z,1.50
2019-05-14T11:04:18.981Z,1.60
2019-05-14T11:06:45.675Z,1.80
2019-05-14T11:09:12.295Z,1.30
2019-05-14T11:11:38.914Z,1.60
2019-05-14T11:14:05.613Z,1.37
2019-05-14T11:16:32.276Z,1.37
2019-05-14T11:18:59.346Z,1.30
2019-05-14T11:21:29.693Z,1.40
2019-05-14T11:23:54.469Z,1.27
2019-05-14T11:26:24.363Z,1.53
2019-05-14T11:28:50.032Z,1.30
2019-05-14T11:31:19.102Z,1.60
2019-05-14T11:33:44.963Z,1.30
2019-05-14T11:36:11.927Z,1.30
2019-05-14T11:38:39.962Z,1.30
2019-05-14T11:41:09.351Z,1.67
2019-05-14T11:43:35.006Z,1.30
2019-05-14T11:46:01.770Z,1.50
2019-05-14T11:48:28.632Z,1.50
2019-05-14T11:50:55.665Z,1.50
2019-05-14T11:53:22.715Z,1.50
2019-05-14T11:55:50.479Z,1.50
2019-05-14T11:58:20.913Z,1.30
2019-05-14T12:00:45.999Z,1.50
2019-05-14T12:03:12.628Z,1.30
2019-05-14T12:05:40.003Z,1.50
2019-05-14T12:08:08.691Z,1.30
2019-05-14T12:10:34.936Z,1.30
2019-05-14T12:13:02.881Z,1.77
2019-05-14T12:15:29.556Z,1.50
2019-05-14T12:17:59.272Z,1.42
2019-05-14T12:20:24.527Z,1.50
2019-05-14T12:22:51.120Z,1.30
2019-05-14T12:25:18.825Z,1.20
2019-05-14T12:27:46.331Z,1.20
2019-05-14T12:30:13.004Z,1.30
2019-05-14T12:32:40.048Z,1.40
2019-05-14T12:35:08.567Z,1.20
2019-05-14T12:37:35.385Z,1.60
2019-05-14T12:40:02.274Z,1.50
2019-05-14T12:42:29.561Z,1.55
2019-05-14T12:44:58.534Z,1.50
2019-05-14T12:47:24.821Z,1.50
2019-05-14T12:49:51.808Z,1.60
2019-05-14T12:52:25.555Z,1.87
2019-05-14T12:54:49.864Z,1.50
2019-05-14T12:57:15.643Z,1.40
2019-05-14T12:59:42.319Z,1.53
2019-05-14T13:02:09.809Z,1.40
2019-05-14T13:04:36.919Z,1.60
2019-05-14T13:07:04.166Z,1.77
2019-05-14T13:09:30.799Z,1.70
2019-05-14T13:11:58.684Z,1.42
2019-05-14T13:14:28.193Z,1.43
2019-05-14T13:16:54.646Z,1.70
2019-05-14T13:19:21.485Z,1.73
2019-05-14T13:21:50.503Z,1.90
2019-05-14T13:24:18.141Z,1.53
2019-05-14T13:26:46.596Z,1.65
2019-05-14T13:29:13.195Z,1.40
2019-05-14T13:31:39.897Z,1.60
2019-05-14T13:34:08.903Z,1.53
2019-05-14T13:36:35.822Z,1.70
2019-05-14T13:39:02.524Z,1.50
2019-05-14T13:41:30.487Z,1.83
2019-05-14T13:43:58.748Z,1.77
2019-05-14T13:46:28.465Z,1.67
2019-05-14T13:48:54.230Z,1.70
2019-05-14T13:51:20.861Z,1.60
2019-05-14T13:53:49.934Z,1.47
2019-05-14T13:56:16.124Z,1.37
2019-05-14T13:58:42.980Z,1.70
2019-05-14T14:01:10.077Z,1.27
2019-05-14T14:03:47.026Z,1.40
2019-05-14T14:06:05.414Z,1.43
2019-05-14T14:08:32.370Z,1.33
2019-05-14T14:11:02.583Z,1.37
2019-05-14T14:13:28.605Z,1.60
2019-05-14T14:15:58.706Z,1.70
2019-05-14T14:18:26.379Z,1.40
2019-05-14T14:20:53.326Z,1.33
2019-05-14T14:23:31.028Z,1.30
2019-05-14T14:25:54.669Z,1.63
2019-05-14T14:28:20.062Z,1.40
2019-05-14T14:30:49.100Z,1.40
2019-05-14T14:33:18.588Z,1.47
2019-05-14T14:35:48.585Z,1.50
2019-05-14T14:38:19.708Z,1.40
2019-05-14T14:40:44.237Z,1.70
2019-05-14T14:43:11.131Z,1.50
2019-05-14T14:45:45.536Z,1.30
2019-05-14T14:48:12.679Z,1.30
2019-05-14T14:50:44.769Z,1.37
2019-05-14T14:53:11.348Z,1.40
2019-05-14T14:55:40.020Z,1.50
2019-05-14T14:58:11.067Z,1.37
2019-05-14T15:00:38.039Z,1.72
2019-05-14T15:03:04.772Z,1.40
2019-05-14T15:05:34.804Z,1.55
2019-05-14T15:08:04.333Z,1.40
2019-05-14T15:10:34.284Z,1.50
2019-05-14T15:13:17.086Z,1.63
2019-05-14T15:18:25.162Z,1.30
2019-05-14T15:20:51.758Z,1.77
2019-05-14T15:23:19.339Z,1.50
2019-05-14T15:25:46.667Z,1.60
2019-05-14T15:28:13.573Z,1.50
2019-05-14T15:30:40.175Z,1.80
2019-05-14T15:33:09.162Z,1.60
2019-05-14T15:35:35.411Z,1.55
2019-05-14T15:38:02.050Z,1.70
2019-05-14T15:40:31.082Z,1.52
2019-05-14T15:43:01.609Z,1.70
2019-05-14T15:45:28.646Z,1.80
2019-05-14T15:50:29.145Z,1.60
2019-05-14T15:52:55.971Z,1.80
2019-05-14T15:55:22.563Z,3.57
2019-05-14T15:57:49.251Z,2.07
2019-05-14T16:00:15.924Z,1.40
2019-05-14T16:02:42.556Z,1.17
2019-05-14T16:05:10.285Z,1.50
2019-05-14T16:07:39.127Z,1.80
2019-05-14T16:10:08.394Z,1.60
2019-05-14T16:12:34.542Z,1.60
2019-05-14T16:15:01.250Z,1.50
2019-05-14T16:17:30.359Z,1.50
2019-05-14T16:19:56.621Z,1.50
2019-05-14T16:22:23.325Z,1.50
2019-05-14T16:24:56.233Z,1.70
2019-05-14T16:27:19.768Z,1.50
2019-05-14T16:29:46.667Z,1.10
2019-05-14T16:32:13.593Z,1.30
2019-05-14T16:34:41.337Z,1.50
2019-05-14T16:37:11.124Z,1.60
2019-05-14T16:39:39.038Z,1.40
2019-05-14T16:42:05.191Z,1.50
2019-05-14T16:44:31.779Z,1.50
2019-05-14T16:46:58.831Z,1.60
2019-05-14T16:49:29.917Z,1.50
2019-05-14T16:51:59.375Z,1.63
2019-05-14T16:54:25.335Z,1.90
2019-05-14T16:56:52.151Z,1.47
2019-05-14T16:59:18.932Z,1.63
2019-05-14T17:01:45.535Z,1.90
2019-05-14T17:04:12.160Z,1.90
2019-05-14T17:06:38.772Z,1.80
2019-05-14T17:09:05.692Z,1.57
2019-05-14T17:14:04.372Z,1.60
2019-05-14T17:16:31.023Z,1.80
2019-05-14T17:18:59.423Z,1.55
2019-05-14T17:21:26.283Z,1.62
2019-05-14T17:23:53.642Z,1.60
2019-05-14T17:26:20.430Z,1.30
2019-05-14T17:28:48.829Z,1.50
2019-05-14T17:31:15.323Z,1.50
2019-05-14T17:33:42.175Z,1.57
2019-05-14T17:36:09.825Z,1.82
2019-05-14T17:38:39.106Z,1.60
2019-05-14T17:41:05.844Z,1.50
2019-05-14T17:43:32.436Z,1.50
2019-05-14T17:46:00.193Z,1.30
2019-05-14T17:48:28.418Z,1.47
2019-05-14T17:50:55.490Z,1.07
2019-05-14T17:53:22.094Z,1.30
2019-05-14T17:55:50.900Z,1.30
2019-05-14T17:58:18.893Z,1.40
2019-05-14T18:00:45.721Z,1.30
2019-05-14T18:03:12.893Z,1.50
2019-05-14T18:05:39.592Z,1.50
2019-05-14T18:08:06.214Z,1.57
2019-05-14T18:10:36.141Z,1.80
2019-05-14T18:13:03.017Z,2.10
2019-05-14T18:15:29.651Z,1.50
2019-05-14T18:17:58.841Z,1.47
2019-05-14T18:20:28.426Z,1.40
2019-05-14T18:22:53.994Z,1.27
2019-05-14T18:25:20.718Z,1.30
2019-05-14T18:27:49.922Z,1.35
2019-05-14T18:30:18.123Z,1.30
2019-05-14T18:32:44.560Z,1.20
2019-05-14T18:35:11.143Z,1.33
2019-05-14T18:37:38.864Z,1.30
2019-05-14T18:40:05.732Z,1.30
2019-05-14T18:42:32.330Z,1.40
2019-05-14T18:44:59.283Z,1.17
2019-05-14T18:47:29.089Z,1.23
2019-05-14T18:49:55.847Z,1.23
2019-05-14T18:52:22.421Z,1.20
2019-05-14T18:54:51.520Z,1.20
2019-05-14T18:57:18.366Z,1.40
2019-05-14T18:59:45.233Z,1.27
2019-05-14T19:02:11.911Z,1.10
2019-05-14T19:04:38.900Z,1.23
2019-05-14T19:07:05.775Z,1.30
2019-05-14T19:09:32.423Z,1.20
2019-05-14T19:11:59.288Z,1.22
2019-05-14T19:14:26.066Z,1.40
2019-05-14T19:16:54.643Z,1.22
2019-05-14T19:19:21.309Z,1.33
2019-05-14T19:21:49.735Z,1.30
2019-05-14T19:24:18.903Z,1.30
2019-05-14T19:26:45.686Z,1.47
2019-05-14T19:29:12.274Z,1.40
2019-05-14T19:31:40.766Z,1.27
2019-05-14T19:34:08.607Z,1.25
2019-05-14T19:36:35.550Z,1.10
2019-05-14T19:39:02.230Z,1.10
2019-05-14T19:41:28.823Z,1.40
2019-05-14T19:43:55.753Z,1.10
2019-05-14T19:46:22.822Z,1.10
2019-05-14T19:48:49.513Z,1.27
2019-05-14T19:51:16.093Z,1.20
2019-05-14T19:53:42.750Z,1.10
2019-05-14T19:56:09.582Z,1.07
2019-05-14T19:58:38.361Z,1.30
2019-05-14T20:01:04.866Z,1.10
2019-05-14T20:03:31.848Z,1.60
2019-05-14T20:05:58.719Z,1.50
2019-05-14T20:08:26.406Z,1.13
2019-05-14T20:10:53.033Z,1.20
2019-05-14T20:13:19.914Z,0.90
2019-05-14T20:15:48.665Z,0.83
2019-05-14T20:18:14.920Z,1.10
2019-05-14T20:20:41.819Z,1.10
2019-05-14T20:23:08.740Z,1.30
2019-05-14T20:25:35.325Z,1.20
2019-05-14T20:28:02.422Z,1.10
2019-05-14T20:33:01.253Z,1.20
2019-05-14T20:35:34.349Z,1.10
2019-05-14T20:37:58.443Z,1.10
2019-05-14T20:40:29.496Z,1.10
2019-05-14T20:42:58.616Z,1.00
2019-05-14T20:45:24.712Z,1.00
2019-05-14T20:47:51.626Z,1.20
2019-05-14T20:50:18.830Z,1.10
2019-05-14T20:52:45.420Z,1.27
2019-05-14T20:55:12.294Z,1.30
2019-05-14T20:57:38.981Z,1.13
2019-05-14T21:00:05.588Z,1.07
2019-05-14T21:02:33.474Z,1.20
2019-05-14T21:05:04.496Z,1.20
2019-05-14T21:07:28.939Z,1.20
2019-05-14T21:09:56.027Z,1.50
2019-05-14T21:12:22.746Z,1.20
2019-05-14T21:14:49.467Z,1.00
2019-05-14T21:17:18.942Z,1.20
2019-05-14T21:19:44.950Z,0.90
2019-05-14T21:22:11.544Z,1.03
2019-05-14T21:24:39.268Z,1.00
2019-05-14T21:27:09.089Z,0.90
2019-05-14T21:29:38.251Z,0.93
2019-05-14T21:32:05.007Z,1.03
2019-05-14T21:34:31.854Z,1.03
2019-05-14T21:36:58.586Z,1.03
2019-05-14T21:39:26.198Z,1.10
2019-05-14T21:41:52.780Z,0.90
2019-05-14T21:44:19.379Z,1.10
2019-05-14T21:46:48.264Z,1.00
2019-05-14T21:49:15.082Z,1.13
2019-05-14T21:51:41.666Z,1.10
2019-05-14T21:54:09.436Z,1.10
2019-05-14T21:56:38.649Z,1.23
2019-05-14T21:59:04.930Z,1.10
2019-05-14T22:01:35.558Z,1.20
2019-05-14T22:04:04.487Z,1.40
2019-05-14T22:06:31.072Z,1.00
2019-05-14T22:08:59.162Z,1.10
2019-05-14T22:11:28.115Z,1.20
2019-05-14T22:13:54.839Z,1.30
2019-05-14T22:16:21.494Z,1.10
2019-05-14T22:18:48.453Z,1.00
2019-05-14T22:21:15.147Z,1.00
2019-05-14T22:23:41.956Z,1.10
2019-05-14T22:26:08.863Z,1.20
2019-05-14T22:28:35.509Z,1.10
2019-05-14T22:31:02.503Z,1.10
2019-05-14T22:33:29.352Z,1.00
2019-05-14T22:35:58.065Z,0.90
2019-05-14T22:38:24.599Z,0.97
2019-05-14T22:40:51.191Z,0.83
2019-05-14T22:43:18.300Z,1.00
2019-05-14T22:45:45.085Z,0.83
2019-05-14T22:48:11.700Z,0.90
2019-05-14T22:50:41.291Z,0.63
2019-05-14T22:53:09.204Z,0.80
2019-05-14T22:55:35.401Z,0.90
2019-05-14T22:58:01.992Z,0.90
2019-05-14T23:00:29.082Z,0.82
2019-05-14T23:02:56.010Z,0.70
2019-05-14T23:05:22.695Z,0.70
2019-05-14T23:07:49.357Z,0.90
2019-05-14T23:10:18.384Z,0.67
2019-05-14T23:12:45.213Z,0.70
2019-05-14T23:15:12.159Z,0.70
2019-05-14T23:17:39.153Z,0.70
2019-05-14T23:20:05.671Z,0.80
2019-05-14T23:25:04.807Z,0.60
2019-05-14T23:27:31.406Z,0.77
2019-05-14T23:29:58.722Z,0.70
2019-05-14T23:32:29.455Z,0.80
2019-05-14T23:34:58.306Z,0.70
2019-05-14T23:37:24.362Z,0.70
2019-05-14T23:39:51.437Z,0.70
2019-05-14T23:42:18.652Z,0.70
2019-05-14T23:44:46.280Z,0.60
2019-05-14T23:47:13.013Z,0.63
2019-05-14T23:49:39.692Z,0.60
2019-05-14T23:52:06.379Z,0.63
2019-05-14T23:54:33.187Z,0.70
2019-05-14T23:56:59.792Z,0.70
2019-05-14T23:59:26.363Z,0.70
